Time;durP1;ratioP1;P1;durP2;ratioP2;P2;SDS_P1;SDS_P2;PMS_P1;PMS_P2;Temp;Humidity;BMP_temperature;BMP_pressure;BME280_temperature;BME280_humidity;BME280_pressure;Samples;Min_cycle;Max_cycle;Signal;HPM_P1;HPM_P2
2023/02/11 00:01:34;;;;;;;85.03;36.10;;;-8.00;99.90;;;;;;4127573;28;20100;-65
2023/02/11 00:03:35;;;;;;;94.20;38.05;;;-8.10;99.90;;;;;;4141126;28;20045;-64
2023/02/11 00:05:36;;;;;;;85.57;35.28;;;-8.30;99.90;;;;;;4141084;28;20091;-65
2023/02/11 00:07:38;;;;;;;89.18;34.35;;;-8.40;99.90;;;;;;4128722;28;20071;-73
2023/02/11 00:09:39;;;;;;;82.25;34.00;;;-8.40;99.90;;;;;;4127743;28;20053;-64
2023/02/11 00:11:40;;;;;;;88.18;34.40;;;-8.50;99.90;;;;;;4128444;28;20081;-65
2023/02/11 00:13:42;;;;;;;83.82;31.75;;;-8.40;99.90;;;;;;4131241;28;20042;-64
2023/02/11 00:15:43;;;;;;;73.50;31.95;;;-8.40;99.90;;;;;;4133726;28;20034;-70
2023/02/11 00:17:45;;;;;;;70.70;30.48;;;-8.40;99.90;;;;;;4144731;28;20092;-64
2023/02/11 00:19:52;;;;;;;74.50;29.73;;;-8.40;99.90;;;;;;4138281;28;20051;-64
2023/02/11 00:21:53;;;;;;;71.93;29.00;;;-8.40;99.90;;;;;;4131363;28;20377;-63
2023/02/11 00:23:58;;;;;;;64.65;25.40;;;-8.40;99.90;;;;;;4141674;28;20481;-63
2023/02/11 00:25:59;;;;;;;61.85;26.60;;;-8.40;99.90;;;;;;4147931;28;20116;-63
2023/02/11 00:28:00;;;;;;;60.00;25.85;;;-8.30;99.90;;;;;;4131559;28;20466;-62
2023/02/11 00:30:01;;;;;;;62.20;25.30;;;-8.30;99.90;;;;;;4131592;28;20085;-62
2023/02/11 00:32:04;;;;;;;60.08;25.90;;;-8.30;99.90;;;;;;4130408;28;20470;-66
2023/02/11 00:34:05;;;;;;;57.10;24.88;;;-8.30;99.90;;;;;;4131265;28;20426;-63
2023/02/11 00:36:09;;;;;;;58.08;24.77;;;-8.20;99.90;;;;;;4131491;28;20038;-62
2023/02/11 00:38:10;;;;;;;60.53;25.88;;;-8.20;99.90;;;;;;4139034;28;20033;-62
2023/02/11 00:40:11;;;;;;;57.75;24.58;;;-8.10;99.90;;;;;;4130211;28;20491;-63
2023/02/11 00:42:15;;;;;;;54.35;22.67;;;-8.10;99.90;;;;;;4131111;28;20108;-63
2023/02/11 00:44:17;;;;;;;54.90;23.02;;;-8.10;99.90;;;;;;4130249;28;20038;-63
2023/02/11 00:46:18;;;;;;;52.97;24.33;;;-8.00;99.90;;;;;;4132133;28;20077;-63
2023/02/11 00:48:19;;;;;;;63.25;24.83;;;-8.00;99.90;;;;;;4145511;28;20100;-63
2023/02/11 00:50:20;;;;;;;55.60;23.85;;;-8.00;99.90;;;;;;4145298;28;20095;-63
2023/02/11 00:52:21;;;;;;;58.80;22.85;;;-8.10;99.90;;;;;;4146636;28;20034;-63
2023/02/11 00:54:22;;;;;;;59.35;25.45;;;-8.10;99.90;;;;;;4144384;28;20085;-62
2023/02/11 00:56:24;;;;;;;62.45;24.88;;;-8.10;99.90;;;;;;4147421;28;20184;-63
2023/02/11 00:58:25;;;;;;;58.50;23.77;;;-8.10;99.90;;;;;;4137018;28;20031;-63
2023/02/11 01:00:27;;;;;;;57.05;24.48;;;-8.10;99.90;;;;;;4131028;28;20487;-63
2023/02/11 01:02:28;;;;;;;57.22;24.90;;;-8.10;99.90;;;;;;4129914;28;20109;-63
2023/02/11 01:04:29;;;;;;;58.58;24.45;;;-8.20;99.90;;;;;;4131051;28;20438;-63
2023/02/11 01:06:30;;;;;;;53.85;21.80;;;-8.30;99.90;;;;;;4130980;28;20026;-63
2023/02/11 01:08:31;;;;;;;56.97;23.80;;;-8.30;99.90;;;;;;4141874;28;20030;-63
2023/02/11 01:10:32;;;;;;;55.42;22.15;;;-8.30;99.90;;;;;;4129784;28;20674;-63
2023/02/11 01:12:33;;;;;;;59.90;23.80;;;-8.30;99.90;;;;;;4133973;28;20042;-63
2023/02/11 01:14:35;;;;;;;57.80;22.58;;;-8.40;99.90;;;;;;4133304;28;20453;-63
2023/02/11 01:16:36;;;;;;;57.85;23.83;;;-8.40;99.90;;;;;;4145226;28;20026;-63
2023/02/11 01:18:37;;;;;;;55.88;23.30;;;-8.40;99.90;;;;;;4146300;28;20076;-63
2023/02/11 01:20:38;;;;;;;54.08;21.90;;;-8.40;99.90;;;;;;4137419;28;20039;-62
2023/02/11 01:22:39;;;;;;;48.97;21.58;;;-8.40;99.90;;;;;;4130241;28;20077;-64
2023/02/11 01:24:41;;;;;;;51.83;21.95;;;-8.40;99.90;;;;;;4129804;28;20037;-63
2023/02/11 01:26:42;;;;;;;52.90;21.58;;;-8.50;99.90;;;;;;4130755;28;20116;-63
2023/02/11 01:28:43;;;;;;;59.65;23.23;;;-8.50;99.90;;;;;;4138184;28;20552;-63
2023/02/11 01:30:44;;;;;;;54.13;21.85;;;-8.50;99.90;;;;;;4146638;28;20359;-63
2023/02/11 01:32:46;;;;;;;56.70;22.73;;;-8.50;99.90;;;;;;4145315;28;20030;-63
2023/02/11 01:34:47;;;;;;;54.53;22.92;;;-8.50;99.90;;;;;;4136464;28;20030;-63
2023/02/11 01:36:48;;;;;;;56.72;23.42;;;-8.50;99.90;;;;;;4130304;28;20035;-63
2023/02/11 01:38:49;;;;;;;52.17;21.50;;;-8.50;99.90;;;;;;4141435;28;20435;-63
2023/02/11 01:40:57;;;;;;;51.97;22.20;;;-8.50;99.90;;;;;;4129354;28;20068;-63
2023/02/11 01:42:58;;;;;;;51.28;23.30;;;-8.50;99.90;;;;;;4130424;28;20061;-63
2023/02/11 01:45:00;;;;;;;54.00;21.27;;;-8.60;99.90;;;;;;4129351;28;20038;-63
2023/02/11 01:47:03;;;;;;;57.58;22.73;;;-8.60;99.90;;;;;;4141713;28;20440;-63
2023/02/11 01:49:13;;;;;;;53.00;23.65;;;-8.60;99.90;;;;;;4145241;28;20096;-64
2023/02/11 01:51:17;;;;;;;57.90;23.65;;;-8.60;99.90;;;;;;4137463;28;20096;-63
2023/02/11 01:58:03;;;;;;;66.65;26.83;;;-8.80;99.90;;;;;;4129091;28;20152;-63
2023/02/11 02:00:16;;;;;;;67.63;28.63;;;-8.80;99.90;;;;;;4130394;28;20158;-63
2023/02/11 02:02:22;;;;;;;67.03;27.65;;;-8.80;99.90;;;;;;4132416;28;20478;-64
2023/02/11 02:04:30;;;;;;;70.20;27.10;;;-8.90;99.90;;;;;;4146324;28;20076;-63
2023/02/11 02:06:48;;;;;;;71.45;29.05;;;-8.90;99.90;;;;;;4144565;28;20033;-63
2023/02/11 02:08:55;;;;;;;68.78;28.42;;;-8.90;99.90;;;;;;4132092;28;20038;-63
2023/02/11 02:10:59;;;;;;;69.53;26.58;;;-8.90;99.90;;;;;;4128786;28;20450;-64
2023/02/11 02:13:00;;;;;;;73.30;28.88;;;-9.00;99.90;;;;;;4132859;28;20079;-70
2023/02/11 02:15:25;;;;;;;67.45;28.25;;;-9.00;99.90;;;;;;4143399;28;20041;-63
2023/02/11 02:17:36;;;;;;;74.43;25.75;;;-9.00;99.90;;;;;;4145612;28;20084;-63
2023/02/11 02:19:37;;;;;;;71.95;28.20;;;-9.10;99.90;;;;;;4145224;28;20042;-63
2023/02/11 02:21:59;;;;;;;73.45;28.95;;;-9.10;99.90;;;;;;4142277;28;20054;-64
2023/02/11 02:24:13;;;;;;;72.55;28.52;;;-9.10;99.90;;;;;;4127828;28;20046;-64
2023/02/11 02:26:22;;;;;;;68.75;29.85;;;-9.10;99.90;;;;;;4129950;28;20038;-64
2023/02/11 02:28:46;;;;;;;77.32;30.20;;;-9.10;99.90;;;;;;4128767;28;20158;-63
2023/02/11 02:31:06;;;;;;;81.70;31.15;;;-9.10;99.90;;;;;;4142575;28;20038;-73
2023/02/11 02:33:25;;;;;;;77.18;31.70;;;-9.20;99.90;;;;;;4128681;28;20030;-72
2023/02/11 02:35:32;;;;;;;78.05;30.67;;;-9.20;99.90;;;;;;4130726;28;20831;-63
2023/02/11 02:38:00;;;;;;;75.18;30.35;;;-9.30;99.90;;;;;;4137479;28;20034;-63
2023/02/11 02:40:06;;;;;;;76.25;28.90;;;-9.30;99.90;;;;;;4116099;28;20038;-66
2023/02/11 02:42:09;;;;;;;81.50;30.10;;;-9.40;99.90;;;;;;4128270;28;20030;-63
2023/02/11 02:44:10;;;;;;;83.25;32.22;;;-9.40;99.90;;;;;;4135170;28;20026;-70
2023/02/11 02:46:14;;;;;;;70.93;28.02;;;-9.40;99.90;;;;;;4144770;28;20068;-63
2023/02/11 02:48:30;;;;;;;78.63;30.08;;;-9.50;99.90;;;;;;4145673;28;20081;-64
2023/02/11 02:50:34;;;;;;;76.78;29.25;;;-9.60;99.90;;;;;;4136090;28;20042;-63
2023/02/11 02:52:55;;;;;;;72.50;31.27;;;-9.60;99.90;;;;;;4137851;28;20029;-63
2023/02/11 02:55:05;;;;;;;66.25;27.30;;;-9.60;99.90;;;;;;4143315;28;20041;-63
2023/02/11 02:57:22;;;;;;;76.30;29.13;;;-9.50;99.90;;;;;;4145569;28;20568;-63
2023/02/11 02:59:48;;;;;;;72.65;29.63;;;-9.50;99.90;;;;;;4144606;28;20034;-64
2023/02/11 03:02:13;;;;;;;70.47;29.10;;;-9.50;99.90;;;;;;4145046;28;20042;-65
2023/02/11 03:04:14;;;;;;;70.60;28.08;;;-9.50;99.90;;;;;;4112453;28;20039;-63
2023/02/11 03:06:31;;;;;;;68.60;29.90;;;-9.50;99.90;;;;;;4113018;28;20478;-63
2023/02/11 03:08:50;;;;;;;70.68;29.05;;;-9.50;99.90;;;;;;4114292;28;20109;-63
2023/02/11 03:10:52;;;;;;;65.93;28.25;;;-9.50;99.90;;;;;;4137644;28;20556;-63
2023/02/11 03:12:55;;;;;;;78.00;29.55;;;-9.50;99.90;;;;;;4128416;28;20022;-63
2023/02/11 03:15:00;;;;;;;72.65;29.05;;;-9.50;99.90;;;;;;4130806;28;20038;-69
2023/02/11 03:17:03;;;;;;;71.70;27.83;;;-9.50;99.90;;;;;;4130079;28;20038;-63
2023/02/11 03:19:19;;;;;;;72.18;28.33;;;-9.50;99.90;;;;;;4142955;28;20050;-63
2023/02/11 03:21:22;;;;;;;73.03;28.80;;;-9.60;99.90;;;;;;4143826;28;20088;-63
2023/02/11 03:23:53;;;;;;;73.53;28.20;;;-9.60;99.90;;;;;;4136087;28;20463;-64
2023/02/11 03:26:05;;;;;;;69.18;26.80;;;-9.70;99.90;;;;;;4142140;28;20060;-64
2023/02/11 03:28:35;;;;;;;65.60;27.85;;;-9.70;99.90;;;;;;4143254;28;20025;-63
2023/02/11 03:31:05;;;;;;;71.75;27.98;;;-9.60;99.90;;;;;;4129022;28;20077;-64
2023/02/11 03:33:33;;;;;;;67.72;26.65;;;-9.60;99.90;;;;;;4127115;28;20066;-64
2023/02/11 03:36:01;;;;;;;67.72;26.13;;;-9.50;99.90;;;;;;4129754;28;20434;-64
2023/02/11 03:38:19;;;;;;;65.15;26.25;;;-9.50;99.90;;;;;;4112420;28;20553;-65
2023/02/11 03:40:30;;;;;;;70.15;28.15;;;-9.50;99.90;;;;;;4131722;28;20068;-65
2023/02/11 03:42:37;;;;;;;65.47;26.08;;;-9.50;99.90;;;;;;4135467;28;20050;-64
2023/02/11 03:44:42;;;;;;;65.45;25.90;;;-9.40;99.90;;;;;;4128889;28;20030;-64
2023/02/11 03:46:49;;;;;;;67.47;27.13;;;-9.40;99.90;;;;;;4134318;28;20018;-65
2023/02/11 03:48:57;;;;;;;66.05;26.92;;;-9.40;99.90;;;;;;4128890;28;20034;-64
2023/02/11 03:51:02;;;;;;;66.93;25.30;;;-9.50;99.90;;;;;;4127829;28;20105;-64
2023/02/11 03:53:04;;;;;;;60.45;23.55;;;-9.60;99.90;;;;;;4128865;28;20529;-64
2023/02/11 03:55:11;;;;;;;61.33;25.55;;;-9.70;99.90;;;;;;4130101;28;20511;-65
2023/02/11 03:59:23;;;;;;;68.90;26.10;;;-9.70;99.90;;;;;;4531423;22;20109;-64
2023/02/11 04:01:24;;;;;;;67.70;26.02;;;-9.70;99.90;;;;;;4196095;28;20056;-64
2023/02/11 04:03:27;;;;;;;68.88;27.60;;;-9.80;99.90;;;;;;4197775;28;20071;-64
2023/02/11 04:05:28;;;;;;;72.72;28.27;;;-9.80;99.90;;;;;;4196181;28;20040;-64
2023/02/11 04:07:29;;;;;;;65.95;28.13;;;-9.80;99.90;;;;;;4196554;28;20102;-63
2023/02/11 04:09:30;;;;;;;68.95;28.10;;;-9.80;99.90;;;;;;4187439;28;20036;-66
2023/02/11 04:11:32;;;;;;;66.82;25.67;;;-9.80;99.90;;;;;;4192600;28;20558;-67
2023/02/11 04:13:33;;;;;;;64.45;26.70;;;-9.80;99.90;;;;;;4180510;28;20029;-62
2023/02/11 04:15:35;;;;;;;75.65;27.52;;;-9.80;99.90;;;;;;4181937;28;20090;-62
2023/02/11 04:17:37;;;;;;;62.92;27.48;;;-9.90;99.90;;;;;;4195250;28;20028;-61
2023/02/11 04:19:38;;;;;;;71.93;29.17;;;-9.90;99.90;;;;;;4196134;28;20547;-70
2023/02/11 04:21:39;;;;;;;65.45;26.33;;;-10.00;99.90;;;;;;4196863;28;20037;-62
2023/02/11 04:23:40;;;;;;;61.92;26.15;;;-10.10;99.90;;;;;;4180546;28;20025;-64
2023/02/11 04:25:42;;;;;;;64.80;25.20;;;-10.10;99.90;;;;;;4180817;28;20079;-63
2023/02/11 04:27:43;;;;;;;60.05;25.98;;;-10.10;99.90;;;;;;4194621;28;20032;-71
2023/02/11 04:29:44;;;;;;;57.47;23.85;;;-10.10;99.90;;;;;;4196901;28;20097;-67
2023/02/11 04:31:46;;;;;;;58.10;24.00;;;-10.00;99.90;;;;;;4195677;28;20434;-63
2023/02/11 04:33:47;;;;;;;59.85;25.25;;;-10.00;99.90;;;;;;4193972;28;20090;-69
2023/02/11 04:35:48;;;;;;;64.47;24.20;;;-10.10;99.90;;;;;;4179467;28;20069;-64
2023/02/11 04:37:49;;;;;;;62.80;25.60;;;-10.10;99.90;;;;;;4179568;28;20044;-73
2023/02/11 04:39:51;;;;;;;62.08;25.70;;;-10.10;99.90;;;;;;4179571;28;20037;-66
2023/02/11 04:41:52;;;;;;;60.03;24.60;;;-10.10;99.90;;;;;;4189219;28;20053;-63
2023/02/11 04:43:53;;;;;;;58.95;25.55;;;-10.20;99.90;;;;;;4179864;28;20024;-64
2023/02/11 04:45:57;;;;;;;60.72;24.23;;;-10.20;99.90;;;;;;4178928;28;20037;-65
2023/02/11 04:48:00;;;;;;;59.25;24.48;;;-10.20;99.90;;;;;;4193076;28;20102;-63
2023/02/11 04:50:01;;;;;;;64.18;25.48;;;-10.20;99.90;;;;;;4195990;28;20029;-64
2023/02/11 04:52:03;;;;;;;69.13;27.38;;;-10.20;99.90;;;;;;4196603;28;20484;-64
2023/02/11 04:54:04;;;;;;;67.97;26.25;;;-10.30;99.90;;;;;;4195352;28;20024;-64
2023/02/11 04:56:05;;;;;;;68.93;27.60;;;-10.40;99.90;;;;;;4196501;28;20102;-64
2023/02/11 04:58:06;;;;;;;64.70;27.77;;;-10.40;99.90;;;;;;4181838;28;20278;-64
2023/02/11 05:00:08;;;;;;;71.28;28.67;;;-10.50;99.90;;;;;;4184380;28;20086;-64
2023/02/11 05:02:10;;;;;;;77.13;29.38;;;-10.60;99.90;;;;;;4193754;28;20040;-65
2023/02/11 05:04:11;;;;;;;70.43;29.58;;;-10.60;99.90;;;;;;4189316;28;20036;-63
2023/02/11 05:06:12;;;;;;;78.00;32.10;;;-10.60;99.90;;;;;;4186895;28;20041;-63
2023/02/11 05:08:13;;;;;;;68.68;26.98;;;-10.70;99.90;;;;;;4179978;28;20029;-64
2023/02/11 05:10:15;;;;;;;82.25;30.73;;;-10.70;99.90;;;;;;4181094;28;20170;-68
2023/02/11 05:12:16;;;;;;;87.43;31.55;;;-10.70;99.90;;;;;;4190034;28;20040;-62
2023/02/11 05:14:17;;;;;;;76.10;28.80;;;-10.60;99.90;;;;;;4179351;28;20025;-63
2023/02/11 05:16:19;;;;;;;71.63;29.17;;;-10.50;99.90;;;;;;4183823;28;20301;-63
2023/02/11 05:18:20;;;;;;;75.13;31.23;;;-10.50;99.90;;;;;;4194327;28;20032;-63
2023/02/11 05:20:22;;;;;;;73.80;30.70;;;-10.40;99.90;;;;;;4195068;28;20793;-63
2023/02/11 05:22:23;;;;;;;68.68;28.75;;;-10.50;99.90;;;;;;4189570;28;20451;-66
2023/02/11 05:24:25;;;;;;;83.72;31.83;;;-10.50;99.90;;;;;;4178846;28;20032;-64
2023/02/11 05:26:26;;;;;;;91.20;35.45;;;-10.50;99.90;;;;;;4186892;28;20040;-64
2023/02/11 05:28:28;;;;;;;91.25;34.58;;;-10.50;99.90;;;;;;4194936;28;20028;-62
2023/02/11 05:30:29;;;;;;;82.40;35.40;;;-10.50;99.90;;;;;;4181508;28;20045;-64
2023/02/11 05:32:30;;;;;;;89.88;38.72;;;-10.50;99.90;;;;;;4192247;28;20032;-64
2023/02/11 05:34:31;;;;;;;89.80;39.78;;;-10.40;99.90;;;;;;4194602;28;20025;-63
2023/02/11 05:36:32;;;;;;;109.35;42.28;;;-10.40;99.90;;;;;;4194859;28;20086;-65
2023/02/11 05:38:35;;;;;;;93.68;38.13;;;-10.30;99.90;;;;;;4194400;28;20037;-63
2023/02/11 05:40:36;;;;;;;92.68;38.65;;;-10.30;99.90;;;;;;4193117;28;20078;-63
2023/02/11 05:42:37;;;;;;;103.30;40.35;;;-10.30;99.90;;;;;;4191345;28;20033;-62
2023/02/11 05:44:39;;;;;;;98.07;41.83;;;-10.30;99.90;;;;;;4189331;28;20075;-62
2023/02/11 05:46:40;;;;;;;96.78;40.58;;;-10.20;99.90;;;;;;4183738;28;20078;-62
2023/02/11 05:48:41;;;;;;;96.78;38.35;;;-10.20;99.90;;;;;;4195544;28;20028;-63
2023/02/11 05:50:42;;;;;;;87.68;40.45;;;-10.10;99.90;;;;;;4193922;28;20552;-63
2023/02/11 05:52:43;;;;;;;88.97;40.08;;;-10.10;99.90;;;;;;4192507;28;20443;-66
2023/02/11 05:54:45;;;;;;;102.78;39.25;;;-10.00;99.90;;;;;;4192633;28;20086;-62
2023/02/11 05:56:46;;;;;;;100.85;40.28;;;-9.90;99.90;;;;;;4195351;28;20052;-63
2023/02/11 05:58:47;;;;;;;92.72;39.55;;;-9.80;99.90;;;;;;4194295;28;20086;-60
2023/02/11 06:00:48;;;;;;;107.40;40.72;;;-9.70;99.90;;;;;;4192784;28;20033;-63
2023/02/11 06:02:49;;;;;;;86.78;38.90;;;-9.60;99.90;;;;;;4182972;28;20095;-63
2023/02/11 06:04:50;;;;;;;95.53;39.22;;;-9.40;99.90;;;;;;4179875;28;21386;-63
2023/02/11 06:06:51;;;;;;;84.90;39.20;;;-9.20;99.90;;;;;;4192310;28;20491;-65
2023/02/11 06:08:53;;;;;;;87.22;36.95;;;-9.10;99.90;;;;;;4193917;28;20450;-61
2023/02/11 06:10:54;;;;;;;75.53;34.25;;;-9.10;99.90;;;;;;4180524;28;20102;-64
2023/02/11 06:12:55;;;;;;;91.95;36.20;;;-9.00;99.90;;;;;;4178524;28;20041;-63
2023/02/11 06:14:56;;;;;;;78.57;35.28;;;-8.90;99.90;;;;;;4178155;28;20365;-61
2023/02/11 06:16:57;;;;;;;83.50;35.63;;;-8.70;99.90;;;;;;4177650;28;20041;-63
2023/02/11 06:18:58;;;;;;;83.22;33.10;;;-8.40;99.90;;;;;;4180599;28;20037;-62
2023/02/11 06:21:00;;;;;;;84.75;36.45;;;-8.20;99.90;;;;;;4177872;28;20361;-63
2023/02/11 06:23:01;;;;;;;81.07;34.22;;;-8.00;99.90;;;;;;4178809;28;20079;-64
2023/02/11 06:25:02;;;;;;;81.82;33.50;;;-7.90;99.90;;;;;;4191778;28;20314;-64
2023/02/11 06:27:04;;;;;;;80.50;33.30;;;-7.90;99.90;;;;;;4195395;28;20036;-72
2023/02/11 06:29:05;;;;;;;90.28;34.10;;;-7.60;99.90;;;;;;4187426;28;20074;-63
2023/02/11 06:31:08;;;;;;;74.63;31.13;;;-7.20;99.90;;;;;;4179224;28;20421;-62
2023/02/11 06:33:09;;;;;;;70.53;30.77;;;-6.90;99.90;;;;;;4187616;28;20021;-63
2023/02/11 06:35:12;;;;;;;75.78;32.55;;;-6.50;99.90;;;;;;4194957;28;20029;-70
2023/02/11 06:37:13;;;;;;;73.63;31.52;;;-6.00;99.90;;;;;;4183752;28;20166;-63
2023/02/11 06:39:14;;;;;;;71.32;31.35;;;-5.50;99.90;;;;;;4178869;28;20091;-63
2023/02/11 06:41:20;;;;;;;70.50;31.08;;;-5.10;99.90;;;;;;4177556;28;20379;-64
2023/02/11 06:43:21;;;;;;;75.93;34.08;;;-4.80;99.90;;;;;;4178378;28;20479;-65
2023/02/11 06:45:23;;;;;;;76.55;34.00;;;-4.80;99.90;;;;;;4177360;28;20025;-70
2023/02/11 06:47:24;;;;;;;79.87;34.43;;;-4.90;99.90;;;;;;4182519;28;20028;-64
2023/02/11 06:49:25;;;;;;;79.63;37.67;;;-5.00;99.90;;;;;;4199851;28;20265;-63
2023/02/11 06:51:27;;;;;;;74.60;35.50;;;-5.00;99.90;;;;;;4192870;28;20315;-62
2023/02/11 06:53:28;;;;;;;80.70;36.37;;;-4.90;99.90;;;;;;4194492;28;20249;-64
2023/02/11 06:55:29;;;;;;;74.57;34.23;;;-4.90;99.90;;;;;;4193320;28;20265;-64
2023/02/11 06:57:31;;;;;;;82.50;38.00;;;-4.80;99.90;;;;;;4194635;28;20318;-68
2023/02/11 06:59:32;;;;;;;76.07;37.30;;;-5.00;99.90;;;;;;4193608;28;20852;-62
2023/02/11 07:01:33;;;;;;;80.77;35.60;;;-4.70;99.90;;;;;;4194397;28;20296;-64
2023/02/11 07:03:37;;;;;;;69.20;34.23;;;-4.60;99.90;;;;;;4192015;28;20671;-64
2023/02/11 07:05:41;;;;;;;74.43;34.57;;;-4.10;99.90;;;;;;4194233;28;20269;-68
2023/02/11 07:07:43;;;;;;;73.07;31.93;;;-3.80;99.90;;;;;;4183452;28;20678;-63
2023/02/11 07:09:44;;;;;;;67.50;31.17;;;-3.50;99.90;;;;;;4194994;28;20322;-63
2023/02/11 07:11:45;;;;;;;71.40;32.27;;;-3.40;99.90;;;;;;4193537;28;20335;-64
2023/02/11 07:13:47;;;;;;;77.23;32.37;;;-3.70;99.90;;;;;;4193012;28;20679;-62
2023/02/11 07:15:48;;;;;;;85.73;36.00;;;-3.90;99.90;;;;;;4191041;28;20652;-61
2023/02/11 07:17:49;;;;;;;90.87;37.63;;;-4.10;99.90;;;;;;4176425;28;20340;-63
2023/02/11 07:19:50;;;;;;;95.53;38.33;;;-4.20;99.90;;;;;;4179133;28;20768;-63
2023/02/11 07:21:52;;;;;;;83.97;38.47;;;-4.30;99.90;;;;;;4177220;28;20290;-62
2023/02/11 07:23:53;;;;;;;85.00;38.90;;;-4.20;99.90;;;;;;4177633;28;20284;-63
2023/02/11 07:25:54;;;;;;;98.33;38.77;;;-3.80;99.90;;;;;;4176375;28;20331;-64
2023/02/11 07:27:55;;;;;;;102.00;40.27;;;-3.60;99.90;;;;;;4177594;28;20355;-67
2023/02/11 07:29:56;;;;;;;93.22;38.58;;;-3.90;99.90;;;;;;4176228;28;20298;-70
2023/02/11 07:31:58;;;;;;;102.35;40.42;;;-3.80;99.90;;;;;;4179164;28;20033;-63
2023/02/11 07:34:00;;;;;;;91.03;39.07;;;-3.60;99.90;;;;;;4179238;28;20086;-65
2023/02/11 07:36:02;;;;;;;85.80;36.80;;;-3.10;99.90;;;;;;4179332;28;20277;-63
2023/02/11 07:38:04;;;;;;;87.30;36.50;;;-2.90;99.90;;;;;;4176116;28;20682;-65
2023/02/11 07:40:06;;;;;;;85.33;35.50;;;-2.50;99.90;;;;;;4191652;28;20331;-64
2023/02/11 07:42:07;;;;;;;96.43;37.00;;;-2.30;99.90;;;;;;4186307;28;20795;-64
2023/02/11 07:44:09;;;;;;;87.77;37.00;;;-2.20;99.90;;;;;;4177425;28;20332;-64
2023/02/11 07:46:16;;;;;;;87.60;33.70;;;-2.30;99.90;;;;;;4175975;28;20331;-64
2023/02/11 07:48:17;;;;;;;87.37;36.83;;;-2.10;99.90;;;;;;4177492;28;20341;-70
2023/02/11 07:50:18;;;;;;;82.17;36.53;;;-2.60;99.90;;;;;;4183215;28;20285;-76
2023/02/11 07:52:19;;;;;;;77.30;35.70;;;-2.80;99.90;;;;;;4178348;28;20335;-62
2023/02/11 07:54:20;;;;;;;83.70;35.77;;;-2.90;99.90;;;;;;4179557;28;20289;-74
2023/02/11 07:56:23;;;;;;;93.67;38.10;;;-3.50;99.90;;;;;;4175638;28;20282;-77
2023/02/11 07:58:24;;;;;;;91.97;38.80;;;-4.00;99.90;;;;;;4173498;28;20305;-77
2023/02/11 08:00:25;;;;;;;81.13;36.37;;;-4.40;99.90;;;;;;4175614;28;20282;-67
2023/02/11 08:02:26;;;;;;;83.10;37.33;;;-4.60;99.90;;;;;;4177041;28;20328;-63
2023/02/11 08:04:28;;;;;;;86.50;39.10;;;-4.80;99.90;;;;;;4177377;28;20032;-65
2023/02/11 08:06:31;;;;;;;84.47;37.78;;;-4.90;99.90;;;;;;4178490;28;21093;-62
2023/02/11 08:08:33;;;;;;;83.07;36.78;;;-4.80;99.90;;;;;;4192651;28;20017;-65
2023/02/11 08:10:34;;;;;;;84.03;36.15;;;-4.80;99.90;;;;;;4191800;28;20041;-69
2023/02/11 08:12:35;;;;;;;83.10;35.95;;;-4.80;99.90;;;;;;4192584;28;20430;-64
2023/02/11 08:14:36;;;;;;;83.60;36.67;;;-4.90;99.90;;;;;;4193181;28;20037;-67
2023/02/11 08:16:38;;;;;;;83.80;35.88;;;-4.90;99.90;;;;;;4183760;28;20124;-64
2023/02/11 08:18:39;;;;;;;77.50;34.15;;;-4.90;99.90;;;;;;4176296;28;20037;-65
2023/02/11 08:20:41;;;;;;;69.57;33.67;;;-4.40;99.90;;;;;;4178409;28;20114;-65
2023/02/11 08:22:42;;;;;;;75.05;34.42;;;-4.10;99.90;;;;;;4188344;28;20458;-64
2023/02/11 08:24:43;;;;;;;74.55;32.55;;;-3.90;99.90;;;;;;4191860;28;20032;-64
2023/02/11 08:26:44;;;;;;;82.03;35.10;;;-3.70;99.90;;;;;;4188615;28;20074;-63
2023/02/11 08:28:47;;;;;;;73.22;32.63;;;-3.80;99.90;;;;;;4190657;28;20082;-64
2023/02/11 08:30:48;;;;;;;77.13;32.95;;;-4.00;99.90;;;;;;4192194;28;20522;-65
2023/02/11 08:32:50;;;;;;;69.25;32.33;;;-4.20;99.90;;;;;;4193288;28;20048;-63
2023/02/11 08:34:52;;;;;;;69.38;31.67;;;-4.40;99.90;;;;;;4192080;28;20078;-66
2023/02/11 08:36:53;;;;;;;65.80;30.30;;;-4.50;99.90;;;;;;4193210;28;20494;-65
2023/02/11 08:38:59;;;;;;;73.47;30.67;;;-4.40;99.90;;;;;;4191030;28;20041;-66
2023/02/11 08:41:00;;;;;;;66.95;30.08;;;-4.10;99.90;;;;;;4192245;28;20040;-64
2023/02/11 08:43:01;;;;;;;67.05;28.95;;;-4.30;99.90;;;;;;4194102;28;20045;-66
2023/02/11 08:45:03;;;;;;;74.38;32.05;;;-4.20;99.90;;;;;;4196660;28;20030;-66
2023/02/11 08:47:05;;;;;;;64.10;28.48;;;-4.20;99.90;;;;;;4180353;28;20029;-67
2023/02/11 08:49:06;;;;;;;56.88;25.60;;;-4.10;99.90;;;;;;4180836;28;20075;-67
2023/02/11 08:51:14;;;;;;;51.83;24.13;;;-4.30;99.90;;;;;;4178728;28;20029;-65
2023/02/11 08:53:15;;;;;;;51.22;22.50;;;-4.30;99.90;;;;;;4179365;28;20029;-73
2023/02/11 08:55:16;;;;;;;48.92;20.88;;;-4.40;99.90;;;;;;4178533;28;20118;-62
2023/02/11 08:57:17;;;;;;;58.55;23.05;;;-4.30;99.90;;;;;;4180230;28;20469;-69
2023/02/11 08:59:19;;;;;;;59.42;21.13;;;-4.20;99.90;;;;;;4185349;28;20090;-64
2023/02/11 09:01:23;;;;;;;53.75;19.55;;;-4.20;99.90;;;;;;4178796;28;20094;-66
2023/02/11 09:03:24;;;;;;;51.88;19.42;;;-4.30;99.90;;;;;;4186176;28;20086;-67
2023/02/11 09:05:26;;;;;;;50.58;20.90;;;-4.10;99.90;;;;;;4194157;28;20040;-69
2023/02/11 09:07:27;;;;;;;46.75;19.20;;;-4.00;99.90;;;;;;4196068;28;20480;-67
2023/02/11 09:09:29;;;;;;;49.40;21.33;;;-4.00;99.90;;;;;;4182909;28;20055;-68
2023/02/11 09:11:33;;;;;;;46.85;21.13;;;-3.90;99.90;;;;;;4179670;28;20459;-66
2023/02/11 09:13:34;;;;;;;56.60;21.30;;;-3.80;99.90;;;;;;4202108;28;20036;-65
2023/02/11 09:15:36;;;;;;;52.40;21.13;;;-3.50;99.90;;;;;;4212386;28;20090;-69
2023/02/11 09:17:37;;;;;;;52.25;23.65;;;-3.60;99.90;;;;;;4211687;28;20060;-65
2023/02/11 09:19:38;;;;;;;65.22;26.25;;;-3.90;99.90;;;;;;4210344;28;20024;-63
2023/02/11 09:21:40;;;;;;;67.88;26.20;;;-4.00;99.90;;;;;;4193676;28;20032;-66
2023/02/11 09:23:43;;;;;;;65.68;24.58;;;-4.00;99.90;;;;;;4188122;28;20113;-65
2023/02/11 09:25:44;;;;;;;60.63;25.50;;;-4.10;99.90;;;;;;4192170;28;20090;-64
2023/02/11 09:27:45;;;;;;;52.70;25.58;;;-4.20;99.90;;;;;;4194529;28;20295;-62
2023/02/11 09:29:46;;;;;;;61.58;26.75;;;-4.30;99.90;;;;;;4194465;28;20040;-63
2023/02/11 09:31:48;;;;;;;60.30;25.42;;;-4.30;99.90;;;;;;4188090;28;20033;-63
2023/02/11 09:33:52;;;;;;;51.03;22.70;;;-4.20;99.90;;;;;;4178285;28;20358;-62
2023/02/11 09:35:53;;;;;;;53.55;22.92;;;-4.10;99.90;;;;;;4177957;28;20530;-63
2023/02/11 09:37:54;;;;;;;52.92;24.00;;;-3.90;99.90;;;;;;4178667;28;20122;-64
2023/02/11 09:39:56;;;;;;;64.43;24.08;;;-4.00;99.90;;;;;;4191651;28;20090;-63
2023/02/11 09:42:00;;;;;;;52.20;24.10;;;-3.90;99.90;;;;;;4195118;28;20535;-63
2023/02/11 09:44:05;;;;;;;53.60;23.13;;;-3.90;99.90;;;;;;4185661;28;20075;-65
2023/02/11 09:46:11;;;;;;;62.65;26.20;;;-3.70;99.90;;;;;;4179021;28;20086;-64
2023/02/11 09:48:22;;;;;;;57.30;24.67;;;-3.70;99.90;;;;;;4177671;28;20127;-65
2023/02/11 09:50:38;;;;;;;46.85;24.50;;;-3.80;99.90;;;;;;4177545;28;20033;-64
2023/02/11 09:52:55;;;;;;;61.35;26.17;;;-3.90;99.90;;;;;;4177076;28;20045;-66
2023/02/11 09:54:59;;;;;;;56.28;25.73;;;-4.00;99.90;;;;;;4178704;28;20037;-61
2023/02/11 09:57:00;;;;;;;55.65;26.05;;;-4.00;99.90;;;;;;4193318;28;20037;-64
2023/02/11 09:59:03;;;;;;;58.40;24.73;;;-4.00;99.90;;;;;;4193426;28;20094;-62
2023/02/11 10:01:32;;;;;;;55.75;25.58;;;-4.00;99.90;;;;;;4190557;28;20041;-65
2023/02/11 10:03:45;;;;;;;54.25;24.45;;;-4.00;99.90;;;;;;4195530;28;20048;-61
2023/02/11 10:06:06;;;;;;;57.17;25.38;;;-4.00;99.90;;;;;;4193863;28;20458;-62
2023/02/11 10:08:15;;;;;;;55.20;24.95;;;-3.90;99.90;;;;;;4172527;28;20040;-63
2023/02/11 10:10:23;;;;;;;56.05;24.23;;;-3.90;99.90;;;;;;4193983;28;20441;-63
2023/02/11 10:12:43;;;;;;;59.08;25.65;;;-3.90;99.90;;;;;;4194855;28;20097;-65
2023/02/11 10:14:52;;;;;;;50.45;23.77;;;-3.90;99.90;;;;;;4194118;28;20058;-64
2023/02/11 10:17:27;;;;;;;51.20;24.13;;;-3.90;99.90;;;;;;4184470;28;20522;-64
2023/02/11 10:19:44;;;;;;;46.30;22.60;;;-3.80;99.90;;;;;;4177985;28;20431;-64
2023/02/11 10:22:04;;;;;;;57.90;24.17;;;-3.80;99.90;;;;;;4176382;28;20040;-63
2023/02/11 10:24:10;;;;;;;62.55;26.00;;;-3.60;99.90;;;;;;4187233;28;20541;-66
2023/02/11 10:26:15;;;;;;;54.00;26.17;;;-3.50;99.90;;;;;;4193560;28;20098;-66
2023/02/11 10:28:23;;;;;;;53.63;25.50;;;-3.50;99.90;;;;;;4194485;28;20261;-67
2023/02/11 10:30:31;;;;;;;52.73;25.07;;;-3.40;99.90;;;;;;4192950;28;20044;-61
2023/02/11 10:33:14;;;;;;;60.83;25.88;;;-3.40;99.90;;;;;;4178189;28;20343;-64
2023/02/11 10:35:18;;;;;;;52.83;23.13;;;-3.30;99.90;;;;;;4176655;28;20033;-61
2023/02/11 10:37:19;;;;;;;62.00;25.03;;;-3.20;99.90;;;;;;4179369;28;20082;-61